sensor_id;sensor_type;location;lat;lon;timestamp;P1;durP1;ratioP1;P2;durP2;ratioP2
16579;SDS011;8402;51.466;6.806;2022-09-09T00:00:08;6.90;;;1.40;;
16579;SDS011;8402;51.466;6.806;2022-09-09T00:02:40;3.47;;;1.73;;
16579;SDS011;8402;51.466;6.806;2022-09-09T00:05:17;2.27;;;1.50;;
16579;SDS011;8402;51.466;6.806;2022-09-09T00:07:53;2.47;;;1.52;;
16579;SDS011;8402;51.466;6.806;2022-09-09T00:10:23;3.50;;;1.80;;
16579;SDS011;8402;51.466;6.806;2022-09-09T00:12:57;2.35;;;1.50;;
16579;SDS011;8402;51.466;6.806;2022-09-09T00:15:34;3.95;;;1.85;;
16579;SDS011;8402;51.466;6.806;2022-09-09T00:18:11;4.32;;;1.80;;
16579;SDS011;8402;51.466;6.806;2022-09-09T00:20:48;1.98;;;1.33;;
16579;SDS011;8402;51.466;6.806;2022-09-09T00:23:22;2.93;;;1.67;;
16579;SDS011;8402;51.466;6.806;2022-09-09T00:25:54;2.17;;;1.67;;
16579;SDS011;8402;51.466;6.806;2022-09-09T00:28:28;2.70;;;1.33;;
16579;SDS011;8402;51.466;6.806;2022-09-09T00:31:04;1.88;;;1.40;;
16579;SDS011;8402;51.466;6.806;2022-09-09T00:33:39;3.47;;;1.30;;
16579;SDS011;8402;51.466;6.806;2022-09-09T00:36:12;3.07;;;1.30;;
16579;SDS011;8402;51.466;6.806;2022-09-09T00:38:44;3.93;;;1.30;;
16579;SDS011;8402;51.466;6.806;2022-09-09T00:41:18;6.13;;;1.40;;
16579;SDS011;8402;51.466;6.806;2022-09-09T00:43:52;2.37;;;1.20;;
16579;SDS011;8402;51.466;6.806;2022-09-09T00:46:41;2.57;;;1.40;;
16579;SDS011;8402;51.466;6.806;2022-09-09T00:49:20;3.90;;;1.37;;
16579;SDS011;8402;51.466;6.806;2022-09-09T00:52:02;2.15;;;1.25;;
16579;SDS011;8402;51.466;6.806;2022-09-09T00:54:42;3.38;;;1.20;;
16579;SDS011;8402;51.466;6.806;2022-09-09T00:57:23;2.15;;;1.30;;
16579;SDS011;8402;51.466;6.806;2022-09-09T00:59:56;2.77;;;1.13;;
16579;SDS011;8402;51.466;6.806;2022-09-09T01:02:44;2.38;;;1.05;;
16579;SDS011;8402;51.466;6.806;2022-09-09T01:05:20;2.93;;;1.13;;
16579;SDS011;8402;51.466;6.806;2022-09-09T01:07:55;1.33;;;1.00;;
16579;SDS011;8402;51.466;6.806;2022-09-09T01:10:29;2.67;;;1.20;;
16579;SDS011;8402;51.466;6.806;2022-09-09T01:13:09;3.27;;;1.30;;
16579;SDS011;8402;51.466;6.806;2022-09-09T01:15:43;3.33;;;1.30;;
16579;SDS011;8402;51.466;6.806;2022-09-09T01:18:14;1.33;;;0.90;;
16579;SDS011;8402;51.466;6.806;2022-09-09T01:20:47;3.13;;;1.37;;
16579;SDS011;8402;51.466;6.806;2022-09-09T01:23:38;2.30;;;1.00;;
16579;SDS011;8402;51.466;6.806;2022-09-09T01:26:27;2.63;;;1.37;;
16579;SDS011;8402;51.466;6.806;2022-09-09T01:28:57;2.20;;;1.30;;
16579;SDS011;8402;51.466;6.806;2022-09-09T01:31:26;2.83;;;1.30;;
16579;SDS011;8402;51.466;6.806;2022-09-09T01:33:57;3.27;;;1.50;;
16579;SDS011;8402;51.466;6.806;2022-09-09T01:36:26;2.60;;;1.33;;
16579;SDS011;8402;51.466;6.806;2022-09-09T01:39:00;7.47;;;1.80;;
16579;SDS011;8402;51.466;6.806;2022-09-09T01:41:29;4.70;;;1.20;;
16579;SDS011;8402;51.466;6.806;2022-09-09T01:43:57;5.40;;;1.60;;
16579;SDS011;8402;51.466;6.806;2022-09-09T01:46:25;2.53;;;1.20;;
16579;SDS011;8402;51.466;6.806;2022-09-09T01:48:56;3.87;;;1.30;;
16579;SDS011;8402;51.466;6.806;2022-09-09T01:51:26;3.30;;;1.20;;
16579;SDS011;8402;51.466;6.806;2022-09-09T01:53:54;3.23;;;1.40;;
16579;SDS011;8402;51.466;6.806;2022-09-09T01:56:25;4.43;;;1.53;;
16579;SDS011;8402;51.466;6.806;2022-09-09T02:02:03;2.70;;;1.10;;
16579;SDS011;8402;51.466;6.806;2022-09-09T02:04:38;2.57;;;1.13;;
16579;SDS011;8402;51.466;6.806;2022-09-09T02:07:13;1.73;;;1.30;;
16579;SDS011;8402;51.466;6.806;2022-09-09T02:09:49;3.53;;;1.67;;
16579;SDS011;8402;51.466;6.806;2022-09-09T02:12:25;4.37;;;1.30;;
16579;SDS011;8402;51.466;6.806;2022-09-09T02:14:58;3.20;;;1.40;;
16579;SDS011;8402;51.466;6.806;2022-09-09T02:17:31;2.23;;;1.27;;
16579;SDS011;8402;51.466;6.806;2022-09-09T02:20:06;3.53;;;1.50;;
16579;SDS011;8402;51.466;6.806;2022-09-09T02:22:36;4.00;;;1.33;;
16579;SDS011;8402;51.466;6.806;2022-09-09T02:25:07;2.63;;;1.37;;
16579;SDS011;8402;51.466;6.806;2022-09-09T02:27:39;4.13;;;1.50;;
16579;SDS011;8402;51.466;6.806;2022-09-09T02:30:10;3.63;;;1.40;;
16579;SDS011;8402;51.466;6.806;2022-09-09T02:32:39;4.03;;;1.43;;
16579;SDS011;8402;51.466;6.806;2022-09-09T02:35:10;3.07;;;1.33;;
16579;SDS011;8402;51.466;6.806;2022-09-09T02:37:41;3.00;;;1.27;;
16579;SDS011;8402;51.466;6.806;2022-09-09T02:40:12;7.17;;;1.70;;
16579;SDS011;8402;51.466;6.806;2022-09-09T02:42:45;4.80;;;1.63;;
16579;SDS011;8402;51.466;6.806;2022-09-09T02:45:15;2.83;;;1.50;;
16579;SDS011;8402;51.466;6.806;2022-09-09T02:47:47;3.03;;;1.57;;
16579;SDS011;8402;51.466;6.806;2022-09-09T02:50:22;4.33;;;1.60;;
16579;SDS011;8402;51.466;6.806;2022-09-09T02:52:56;3.27;;;1.33;;
16579;SDS011;8402;51.466;6.806;2022-09-09T02:55:35;3.80;;;1.37;;
16579;SDS011;8402;51.466;6.806;2022-09-09T02:58:08;4.03;;;1.50;;
16579;SDS011;8402;51.466;6.806;2022-09-09T03:00:39;2.23;;;1.30;;
16579;SDS011;8402;51.466;6.806;2022-09-09T03:03:08;3.13;;;1.23;;
16579;SDS011;8402;51.466;6.806;2022-09-09T03:05:36;3.77;;;1.57;;
16579;SDS011;8402;51.466;6.806;2022-09-09T03:08:04;3.83;;;1.60;;
16579;SDS011;8402;51.466;6.806;2022-09-09T03:10:33;3.63;;;1.47;;
16579;SDS011;8402;51.466;6.806;2022-09-09T03:13:01;3.23;;;1.70;;
16579;SDS011;8402;51.466;6.806;2022-09-09T03:15:33;4.93;;;1.50;;
16579;SDS011;8402;51.466;6.806;2022-09-09T03:18:01;2.27;;;1.47;;
16579;SDS011;8402;51.466;6.806;2022-09-09T03:20:29;3.10;;;1.43;;
16579;SDS011;8402;51.466;6.806;2022-09-09T03:22:59;3.67;;;1.43;;
16579;SDS011;8402;51.466;6.806;2022-09-09T03:25:27;2.97;;;1.43;;
16579;SDS011;8402;51.466;6.806;2022-09-09T03:27:56;4.23;;;1.50;;
16579;SDS011;8402;51.466;6.806;2022-09-09T03:30:24;2.00;;;1.50;;
16579;SDS011;8402;51.466;6.806;2022-09-09T03:32:54;2.93;;;1.60;;
16579;SDS011;8402;51.466;6.806;2022-09-09T03:35:22;5.70;;;1.80;;
16579;SDS011;8402;51.466;6.806;2022-09-09T03:37:51;2.97;;;1.37;;
16579;SDS011;8402;51.466;6.806;2022-09-09T03:40:20;4.30;;;1.87;;
16579;SDS011;8402;51.466;6.806;2022-09-09T03:42:48;2.87;;;1.47;;
16579;SDS011;8402;51.466;6.806;2022-09-09T03:45:16;5.97;;;2.00;;
16579;SDS011;8402;51.466;6.806;2022-09-09T03:47:44;4.57;;;1.50;;
16579;SDS011;8402;51.466;6.806;2022-09-09T03:50:13;4.80;;;2.00;;
16579;SDS011;8402;51.466;6.806;2022-09-09T03:52:41;5.20;;;1.70;;
16579;SDS011;8402;51.466;6.806;2022-09-09T03:55:09;3.77;;;1.80;;
16579;SDS011;8402;51.466;6.806;2022-09-09T03:57:37;3.73;;;1.90;;
16579;SDS011;8402;51.466;6.806;2022-09-09T04:00:06;6.43;;;2.00;;
16579;SDS011;8402;51.466;6.806;2022-09-09T04:02:35;3.27;;;1.90;;
16579;SDS011;8402;51.466;6.806;2022-09-09T04:05:03;7.37;;;1.67;;
16579;SDS011;8402;51.466;6.806;2022-09-09T04:07:34;8.17;;;1.93;;
16579;SDS011;8402;51.466;6.806;2022-09-09T04:10:02;6.07;;;1.70;;
16579;SDS011;8402;51.466;6.806;2022-09-09T04:12:30;2.83;;;1.70;;
16579;SDS011;8402;51.466;6.806;2022-09-09T04:14:58;6.63;;;1.80;;
16579;SDS011;8402;51.466;6.806;2022-09-09T04:17:27;6.37;;;1.73;;
16579;SDS011;8402;51.466;6.806;2022-09-09T04:19:54;2.57;;;1.80;;
16579;SDS011;8402;51.466;6.806;2022-09-09T04:22:23;5.27;;;1.63;;
16579;SDS011;8402;51.466;6.806;2022-09-09T04:24:52;5.70;;;1.93;;
16579;SDS011;8402;51.466;6.806;2022-09-09T04:27:20;3.57;;;1.80;;
16579;SDS011;8402;51.466;6.806;2022-09-09T04:29:48;2.70;;;1.90;;
16579;SDS011;8402;51.466;6.806;2022-09-09T04:32:16;2.73;;;1.70;;
16579;SDS011;8402;51.466;6.806;2022-09-09T04:34:43;2.77;;;1.73;;
16579;SDS011;8402;51.466;6.806;2022-09-09T04:37:14;3.87;;;1.70;;
16579;SDS011;8402;51.466;6.806;2022-09-09T04:39:42;4.23;;;1.90;;
16579;SDS011;8402;51.466;6.806;2022-09-09T04:42:12;5.57;;;1.83;;
16579;SDS011;8402;51.466;6.806;2022-09-09T04:44:40;5.07;;;1.80;;
16579;SDS011;8402;51.466;6.806;2022-09-09T04:47:08;5.47;;;1.60;;
16579;SDS011;8402;51.466;6.806;2022-09-09T04:49:36;3.03;;;1.67;;
16579;SDS011;8402;51.466;6.806;2022-09-09T04:52:05;5.20;;;1.97;;
16579;SDS011;8402;51.466;6.806;2022-09-09T04:54:32;4.73;;;1.90;;
16579;SDS011;8402;51.466;6.806;2022-09-09T04:57:01;5.30;;;1.73;;
16579;SDS011;8402;51.466;6.806;2022-09-09T04:59:30;3.63;;;1.70;;
16579;SDS011;8402;51.466;6.806;2022-09-09T05:01:58;5.00;;;1.83;;
16579;SDS011;8402;51.466;6.806;2022-09-09T05:04:27;5.07;;;1.83;;
16579;SDS011;8402;51.466;6.806;2022-09-09T05:06:55;6.63;;;1.70;;
16579;SDS011;8402;51.466;6.806;2022-09-09T05:09:23;7.17;;;2.10;;
16579;SDS011;8402;51.466;6.806;2022-09-09T05:11:51;8.40;;;2.00;;
16579;SDS011;8402;51.466;6.806;2022-09-09T05:14:19;6.67;;;1.83;;
16579;SDS011;8402;51.466;6.806;2022-09-09T05:16:48;5.87;;;1.70;;
16579;SDS011;8402;51.466;6.806;2022-09-09T05:19:16;3.93;;;1.80;;
16579;SDS011;8402;51.466;6.806;2022-09-09T05:21:46;3.90;;;1.80;;
16579;SDS011;8402;51.466;6.806;2022-09-09T05:24:13;6.63;;;2.00;;
16579;SDS011;8402;51.466;6.806;2022-09-09T05:26:41;5.17;;;2.07;;
16579;SDS011;8402;51.466;6.806;2022-09-09T05:29:10;7.27;;;2.03;;
16579;SDS011;8402;51.466;6.806;2022-09-09T05:31:38;4.30;;;1.93;;
16579;SDS011;8402;51.466;6.806;2022-09-09T05:34:09;6.20;;;2.00;;
16579;SDS011;8402;51.466;6.806;2022-09-09T05:36:37;7.53;;;2.10;;
16579;SDS011;8402;51.466;6.806;2022-09-09T05:39:05;4.67;;;2.00;;
16579;SDS011;8402;51.466;6.806;2022-09-09T05:41:33;4.80;;;1.93;;
16579;SDS011;8402;51.466;6.806;2022-09-09T05:44:02;5.87;;;1.63;;
16579;SDS011;8402;51.466;6.806;2022-09-09T05:46:30;6.10;;;2.20;;
16579;SDS011;8402;51.466;6.806;2022-09-09T05:48:58;5.47;;;2.40;;
16579;SDS011;8402;51.466;6.806;2022-09-09T05:51:28;6.70;;;2.30;;
16579;SDS011;8402;51.466;6.806;2022-09-09T05:53:57;7.07;;;2.30;;
16579;SDS011;8402;51.466;6.806;2022-09-09T05:56:26;3.93;;;2.37;;
16579;SDS011;8402;51.466;6.806;2022-09-09T05:58:55;9.23;;;2.40;;
16579;SDS011;8402;51.466;6.806;2022-09-09T06:01:24;5.73;;;2.30;;
16579;SDS011;8402;51.466;6.806;2022-09-09T06:03:53;8.10;;;2.40;;
16579;SDS011;8402;51.466;6.806;2022-09-09T06:06:23;5.20;;;1.90;;
16579;SDS011;8402;51.466;6.806;2022-09-09T06:08:54;4.90;;;2.00;;
16579;SDS011;8402;51.466;6.806;2022-09-09T06:11:24;5.30;;;2.17;;
16579;SDS011;8402;51.466;6.806;2022-09-09T06:13:53;7.33;;;2.10;;
16579;SDS011;8402;51.466;6.806;2022-09-09T06:16:22;6.47;;;1.77;;
16579;SDS011;8402;51.466;6.806;2022-09-09T06:18:52;6.20;;;2.60;;
16579;SDS011;8402;51.466;6.806;2022-09-09T06:21:23;6.00;;;2.30;;
16579;SDS011;8402;51.466;6.806;2022-09-09T06:23:53;5.30;;;1.97;;
16579;SDS011;8402;51.466;6.806;2022-09-09T06:26:26;6.87;;;2.10;;
16579;SDS011;8402;51.466;6.806;2022-09-09T06:28:56;6.47;;;2.43;;
16579;SDS011;8402;51.466;6.806;2022-09-09T06:31:26;8.30;;;2.50;;
16579;SDS011;8402;51.466;6.806;2022-09-09T06:33:57;7.10;;;2.17;;
16579;SDS011;8402;51.466;6.806;2022-09-09T06:36:26;5.30;;;2.00;;
16579;SDS011;8402;51.466;6.806;2022-09-09T06:38:57;9.43;;;2.03;;
16579;SDS011;8402;51.466;6.806;2022-09-09T06:41:27;8.90;;;2.30;;
16579;SDS011;8402;51.466;6.806;2022-09-09T06:43:57;5.70;;;2.00;;
16579;SDS011;8402;51.466;6.806;2022-09-09T06:46:25;4.13;;;2.07;;
16579;SDS011;8402;51.466;6.806;2022-09-09T06:48:55;6.00;;;2.27;;
16579;SDS011;8402;51.466;6.806;2022-09-09T06:51:26;7.57;;;2.30;;
16579;SDS011;8402;51.466;6.806;2022-09-09T06:53:56;4.87;;;2.07;;
16579;SDS011;8402;51.466;6.806;2022-09-09T06:56:29;8.53;;;2.37;;
16579;SDS011;8402;51.466;6.806;2022-09-09T06:58:59;6.30;;;2.23;;
16579;SDS011;8402;51.466;6.806;2022-09-09T07:01:30;9.43;;;2.13;;
16579;SDS011;8402;51.466;6.806;2022-09-09T07:04:00;9.37;;;2.40;;
16579;SDS011;8402;51.466;6.806;2022-09-09T07:06:29;6.20;;;2.03;;
16579;SDS011;8402;51.466;6.806;2022-09-09T07:09:00;5.43;;;2.10;;
16579;SDS011;8402;51.466;6.806;2022-09-09T07:11:31;9.70;;;2.37;;
16579;SDS011;8402;51.466;6.806;2022-09-09T07:14:00;7.33;;;2.50;;
16579;SDS011;8402;51.466;6.806;2022-09-09T07:16:28;12.70;;;2.13;;
16579;SDS011;8402;51.466;6.806;2022-09-09T07:18:58;5.73;;;1.83;;
16579;SDS011;8402;51.466;6.806;2022-09-09T07:21:27;8.67;;;2.33;;
16579;SDS011;8402;51.466;6.806;2022-09-09T07:23:57;7.47;;;2.30;;
16579;SDS011;8402;51.466;6.806;2022-09-09T07:26:27;9.20;;;2.20;;
16579;SDS011;8402;51.466;6.806;2022-09-09T07:28:56;6.07;;;1.77;;
16579;SDS011;8402;51.466;6.806;2022-09-09T07:31:25;4.73;;;2.13;;
16579;SDS011;8402;51.466;6.806;2022-09-09T07:33:54;6.07;;;2.00;;
16579;SDS011;8402;51.466;6.806;2022-09-09T07:36:22;4.93;;;1.70;;
16579;SDS011;8402;51.466;6.806;2022-09-09T07:38:59;5.45;;;1.65;;
16579;SDS011;8402;51.466;6.806;2022-09-09T07:41:30;6.45;;;1.70;;
16579;SDS011;8402;51.466;6.806;2022-09-09T07:44:03;9.70;;;1.50;;
16579;SDS011;8402;51.466;6.806;2022-09-09T07:46:33;4.72;;;1.83;;
16579;SDS011;8402;51.466;6.806;2022-09-09T07:49:01;5.10;;;1.70;;
16579;SDS011;8402;51.466;6.806;2022-09-09T07:51:30;5.65;;;1.60;;
16579;SDS011;8402;51.466;6.806;2022-09-09T07:54:00;6.03;;;1.60;;
16579;SDS011;8402;51.466;6.806;2022-09-09T07:56:30;11.07;;;1.90;;
16579;SDS011;8402;51.466;6.806;2022-09-09T07:58:59;12.68;;;1.55;;
16579;SDS011;8402;51.466;6.806;2022-09-09T08:01:28;3.53;;;1.67;;
16579;SDS011;8402;51.466;6.806;2022-09-09T08:03:58;4.80;;;1.70;;
16579;SDS011;8402;51.466;6.806;2022-09-09T08:06:29;6.43;;;1.73;;
16579;SDS011;8402;51.466;6.806;2022-09-09T08:08:58;8.50;;;1.55;;
16579;SDS011;8402;51.466;6.806;2022-09-09T08:11:27;8.07;;;1.60;;
16579;SDS011;8402;51.466;6.806;2022-09-09T08:14:04;8.35;;;1.63;;
16579;SDS011;8402;51.466;6.806;2022-09-09T08:16:34;6.47;;;2.13;;
16579;SDS011;8402;51.466;6.806;2022-09-09T08:19:04;9.35;;;1.60;;
16579;SDS011;8402;51.466;6.806;2022-09-09T08:21:34;5.78;;;1.42;;
16579;SDS011;8402;51.466;6.806;2022-09-09T08:24:04;6.22;;;1.67;;
16579;SDS011;8402;51.466;6.806;2022-09-09T08:26:33;5.55;;;1.50;;
16579;SDS011;8402;51.466;6.806;2022-09-09T08:29:08;7.68;;;2.00;;
16579;SDS011;8402;51.466;6.806;2022-09-09T08:31:38;7.63;;;1.67;;
16579;SDS011;8402;51.466;6.806;2022-09-09T08:34:08;7.82;;;1.65;;
16579;SDS011;8402;51.466;6.806;2022-09-09T08:36:37;5.18;;;1.50;;
16579;SDS011;8402;51.466;6.806;2022-09-09T08:39:09;5.60;;;1.77;;
16579;SDS011;8402;51.466;6.806;2022-09-09T08:41:44;5.18;;;1.25;;
16579;SDS011;8402;51.466;6.806;2022-09-09T08:44:29;5.47;;;1.77;;
16579;SDS011;8402;51.466;6.806;2022-09-09T08:47:06;6.28;;;1.40;;
16579;SDS011;8402;51.466;6.806;2022-09-09T08:49:47;4.35;;;1.60;;
16579;SDS011;8402;51.466;6.806;2022-09-09T08:52:27;7.50;;;1.52;;
16579;SDS011;8402;51.466;6.806;2022-09-09T08:54:59;4.15;;;1.45;;
16579;SDS011;8402;51.466;6.806;2022-09-09T08:57:39;6.75;;;2.00;;
16579;SDS011;8402;51.466;6.806;2022-09-09T09:00:09;5.28;;;1.50;;
16579;SDS011;8402;51.466;6.806;2022-09-09T09:02:39;3.28;;;1.52;;
16579;SDS011;8402;51.466;6.806;2022-09-09T09:05:15;4.85;;;1.60;;
16579;SDS011;8402;51.466;6.806;2022-09-09T09:07:54;4.82;;;1.42;;
16579;SDS011;8402;51.466;6.806;2022-09-09T09:10:33;4.68;;;1.30;;
16579;SDS011;8402;51.466;6.806;2022-09-09T09:13:12;2.65;;;1.00;;
16579;SDS011;8402;51.466;6.806;2022-09-09T09:15:46;3.90;;;1.33;;
16579;SDS011;8402;51.466;6.806;2022-09-09T09:18:17;4.32;;;1.40;;
16579;SDS011;8402;51.466;6.806;2022-09-09T09:20:49;6.40;;;1.77;;
16579;SDS011;8402;51.466;6.806;2022-09-09T09:23:21;3.50;;;1.63;;
16579;SDS011;8402;51.466;6.806;2022-09-09T09:25:52;3.47;;;1.55;;
16579;SDS011;8402;51.466;6.806;2022-09-09T09:28:24;4.45;;;1.38;;
16579;SDS011;8402;51.466;6.806;2022-09-09T09:30:58;6.65;;;1.63;;
16579;SDS011;8402;51.466;6.806;2022-09-09T09:33:31;4.05;;;1.30;;
16579;SDS011;8402;51.466;6.806;2022-09-09T09:36:06;4.35;;;1.75;;
16579;SDS011;8402;51.466;6.806;2022-09-09T09:38:36;5.63;;;1.45;;
16579;SDS011;8402;51.466;6.806;2022-09-09T09:41:33;4.75;;;1.33;;
16579;SDS011;8402;51.466;6.806;2022-09-09T09:44:03;4.05;;;1.45;;
16579;SDS011;8402;51.466;6.806;2022-09-09T09:46:34;5.55;;;1.48;;
16579;SDS011;8402;51.466;6.806;2022-09-09T09:49:03;5.00;;;1.60;;
16579;SDS011;8402;51.466;6.806;2022-09-09T09:51:32;3.47;;;1.50;;
16579;SDS011;8402;51.466;6.806;2022-09-09T09:54:06;5.05;;;1.40;;
16579;SDS011;8402;51.466;6.806;2022-09-09T09:56:41;3.45;;;1.48;;
16579;SDS011;8402;51.466;6.806;2022-09-09T09:59:19;4.40;;;1.30;;
16579;SDS011;8402;51.466;6.806;2022-09-09T10:05:02;6.53;;;1.48;;
16579;SDS011;8402;51.466;6.806;2022-09-09T10:07:31;6.10;;;1.40;;
16579;SDS011;8402;51.466;6.806;2022-09-09T10:10:00;3.45;;;1.15;;
16579;SDS011;8402;51.466;6.806;2022-09-09T10:12:31;2.80;;;1.20;;
16579;SDS011;8402;51.466;6.806;2022-09-09T10:15:16;4.05;;;1.33;;
16579;SDS011;8402;51.466;6.806;2022-09-09T10:17:58;6.57;;;1.42;;
16579;SDS011;8402;51.466;6.806;2022-09-09T10:20:38;4.15;;;1.80;;
16579;SDS011;8402;51.466;6.806;2022-09-09T10:23:17;3.78;;;1.40;;
16579;SDS011;8402;51.466;6.806;2022-09-09T10:26:03;3.13;;;1.40;;
16579;SDS011;8402;51.466;6.806;2022-09-09T10:28:48;4.65;;;1.38;;
16579;SDS011;8402;51.466;6.806;2022-09-09T10:31:30;3.35;;;1.13;;
16579;SDS011;8402;51.466;6.806;2022-09-09T10:34:12;4.20;;;1.52;;
16579;SDS011;8402;51.466;6.806;2022-09-09T10:36:58;3.80;;;1.15;;
16579;SDS011;8402;51.466;6.806;2022-09-09T10:39:31;4.82;;;1.50;;
16579;SDS011;8402;51.466;6.806;2022-09-09T10:42:08;4.13;;;1.10;;
16579;SDS011;8402;51.466;6.806;2022-09-09T10:44:43;3.45;;;1.33;;
16579;SDS011;8402;51.466;6.806;2022-09-09T10:47:34;2.42;;;1.17;;
16579;SDS011;8402;51.466;6.806;2022-09-09T10:50:27;3.13;;;1.38;;
16579;SDS011;8402;51.466;6.806;2022-09-09T10:53:24;3.83;;;1.38;;
16579;SDS011;8402;51.466;6.806;2022-09-09T10:55:59;5.43;;;1.45;;
16579;SDS011;8402;51.466;6.806;2022-09-09T10:58:35;3.03;;;1.33;;
16579;SDS011;8402;51.466;6.806;2022-09-09T11:01:10;4.65;;;1.23;;
16579;SDS011;8402;51.466;6.806;2022-09-09T11:03:44;2.17;;;1.10;;
16579;SDS011;8402;51.466;6.806;2022-09-09T11:06:20;3.35;;;1.25;;
16579;SDS011;8402;51.466;6.806;2022-09-09T11:08:54;2.55;;;1.00;;
16579;SDS011;8402;51.466;6.806;2022-09-09T11:11:27;2.67;;;1.27;;
16579;SDS011;8402;51.466;6.806;2022-09-09T11:14:01;2.10;;;1.30;;
16579;SDS011;8402;51.466;6.806;2022-09-09T11:16:34;4.63;;;1.48;;
16579;SDS011;8402;51.466;6.806;2022-09-09T11:19:13;2.58;;;1.30;;
16579;SDS011;8402;51.466;6.806;2022-09-09T11:21:46;6.65;;;1.20;;
16579;SDS011;8402;51.466;6.806;2022-09-09T11:24:18;5.60;;;1.70;;
16579;SDS011;8402;51.466;6.806;2022-09-09T11:26:51;5.22;;;1.45;;
16579;SDS011;8402;51.466;6.806;2022-09-09T11:29:40;15.25;;;1.90;;
16579;SDS011;8402;51.466;6.806;2022-09-09T11:32:29;5.57;;;1.70;;
16579;SDS011;8402;51.466;6.806;2022-09-09T11:35:17;8.75;;;1.30;;
16579;SDS011;8402;51.466;6.806;2022-09-09T11:38:11;4.50;;;1.20;;
16579;SDS011;8402;51.466;6.806;2022-09-09T11:40:46;3.15;;;1.20;;
16579;SDS011;8402;51.466;6.806;2022-09-09T11:43:21;4.57;;;1.15;;
16579;SDS011;8402;51.466;6.806;2022-09-09T11:45:53;3.95;;;1.50;;
16579;SDS011;8402;51.466;6.806;2022-09-09T11:48:28;6.55;;;1.65;;
16579;SDS011;8402;51.466;6.806;2022-09-09T11:51:02;2.53;;;1.00;;
16579;SDS011;8402;51.466;6.806;2022-09-09T11:53:48;4.40;;;1.20;;
16579;SDS011;8402;51.466;6.806;2022-09-09T11:56:24;13.65;;;1.90;;
16579;SDS011;8402;51.466;6.806;2022-09-09T11:58:56;10.15;;;1.20;;
16579;SDS011;8402;51.466;6.806;2022-09-09T12:01:28;5.22;;;1.05;;
16579;SDS011;8402;51.466;6.806;2022-09-09T12:04:10;1.85;;;1.00;;
16579;SDS011;8402;51.466;6.806;2022-09-09T12:06:49;1.67;;;1.00;;
16579;SDS011;8402;51.466;6.806;2022-09-09T12:09:25;2.38;;;1.05;;
16579;SDS011;8402;51.466;6.806;2022-09-09T12:12:05;2.08;;;1.13;;
16579;SDS011;8402;51.466;6.806;2022-09-09T12:14:35;3.65;;;1.08;;
16579;SDS011;8402;51.466;6.806;2022-09-09T12:17:09;2.72;;;1.05;;
16579;SDS011;8402;51.466;6.806;2022-09-09T12:19:45;2.13;;;1.10;;
16579;SDS011;8402;51.466;6.806;2022-09-09T12:22:16;3.53;;;1.10;;
16579;SDS011;8402;51.466;6.806;2022-09-09T12:24:57;6.90;;;1.23;;
16579;SDS011;8402;51.466;6.806;2022-09-09T12:27:34;3.50;;;1.15;;
16579;SDS011;8402;51.466;6.806;2022-09-09T12:30:11;5.90;;;1.20;;
16579;SDS011;8402;51.466;6.806;2022-09-09T12:32:42;5.13;;;1.52;;
16579;SDS011;8402;51.466;6.806;2022-09-09T12:35:11;9.15;;;1.30;;
16579;SDS011;8402;51.466;6.806;2022-09-09T12:37:46;6.38;;;1.25;;
16579;SDS011;8402;51.466;6.806;2022-09-09T12:40:22;6.00;;;1.50;;
16579;SDS011;8402;51.466;6.806;2022-09-09T12:42:51;4.57;;;1.30;;
16579;SDS011;8402;51.466;6.806;2022-09-09T12:45:22;7.03;;;1.80;;
16579;SDS011;8402;51.466;6.806;2022-09-09T12:47:53;4.15;;;1.27;;
16579;SDS011;8402;51.466;6.806;2022-09-09T12:50:24;3.30;;;1.10;;
16579;SDS011;8402;51.466;6.806;2022-09-09T12:52:54;4.43;;;1.40;;
16579;SDS011;8402;51.466;6.806;2022-09-09T12:55:28;1.98;;;1.05;;
16579;SDS011;8402;51.466;6.806;2022-09-09T12:58:00;4.65;;;1.13;;
16579;SDS011;8402;51.466;6.806;2022-09-09T13:00:30;4.15;;;1.42;;
16579;SDS011;8402;51.466;6.806;2022-09-09T13:03:00;4.43;;;1.33;;
16579;SDS011;8402;51.466;6.806;2022-09-09T13:05:34;3.13;;;1.42;;
16579;SDS011;8402;51.466;6.806;2022-09-09T13:08:03;3.85;;;1.40;;
16579;SDS011;8402;51.466;6.806;2022-09-09T13:10:35;1.77;;;0.95;;
16579;SDS011;8402;51.466;6.806;2022-09-09T13:13:21;2.17;;;1.15;;
16579;SDS011;8402;51.466;6.806;2022-09-09T13:15:51;3.08;;;1.15;;
16579;SDS011;8402;51.466;6.806;2022-09-09T13:18:21;3.70;;;1.40;;
16579;SDS011;8402;51.466;6.806;2022-09-09T13:20:51;2.90;;;1.20;;
16579;SDS011;8402;51.466;6.806;2022-09-09T13:23:19;4.13;;;1.75;;
16579;SDS011;8402;51.466;6.806;2022-09-09T13:25:56;5.22;;;2.45;;
16579;SDS011;8402;51.466;6.806;2022-09-09T13:28:27;6.07;;;2.15;;
16579;SDS011;8402;51.466;6.806;2022-09-09T13:31:00;5.18;;;2.53;;
16579;SDS011;8402;51.466;6.806;2022-09-09T13:33:30;6.80;;;2.83;;
16579;SDS011;8402;51.466;6.806;2022-09-09T13:36:01;6.63;;;3.50;;
16579;SDS011;8402;51.466;6.806;2022-09-09T13:38:32;8.82;;;3.65;;
16579;SDS011;8402;51.466;6.806;2022-09-09T13:41:05;5.57;;;3.20;;
16579;SDS011;8402;51.466;6.806;2022-09-09T13:43:36;4.43;;;2.10;;
16579;SDS011;8402;51.466;6.806;2022-09-09T13:46:20;4.18;;;2.40;;
16579;SDS011;8402;51.466;6.806;2022-09-09T13:48:53;5.35;;;2.47;;
16579;SDS011;8402;51.466;6.806;2022-09-09T13:51:26;6.65;;;2.40;;
16579;SDS011;8402;51.466;6.806;2022-09-09T13:54:00;3.47;;;1.88;;
16579;SDS011;8402;51.466;6.806;2022-09-09T13:56:30;6.55;;;2.13;;
16579;SDS011;8402;51.466;6.806;2022-09-09T13:58:58;3.50;;;1.70;;
16579;SDS011;8402;51.466;6.806;2022-09-09T14:01:26;5.88;;;1.92;;
16579;SDS011;8402;51.466;6.806;2022-09-09T14:03:55;8.75;;;3.20;;
16579;SDS011;8402;51.466;6.806;2022-09-09T14:06:23;5.93;;;2.80;;
16579;SDS011;8402;51.466;6.806;2022-09-09T14:08:51;5.60;;;2.95;;
16579;SDS011;8402;51.466;6.806;2022-09-09T14:11:20;6.30;;;2.80;;
16579;SDS011;8402;51.466;6.806;2022-09-09T14:13:50;5.10;;;3.00;;
16579;SDS011;8402;51.466;6.806;2022-09-09T14:16:18;4.88;;;2.17;;
16579;SDS011;8402;51.466;6.806;2022-09-09T14:18:47;3.50;;;1.80;;
16579;SDS011;8402;51.466;6.806;2022-09-09T14:21:16;3.85;;;2.08;;
16579;SDS011;8402;51.466;6.806;2022-09-09T14:23:44;3.70;;;1.90;;
16579;SDS011;8402;51.466;6.806;2022-09-09T14:26:12;5.85;;;2.15;;
16579;SDS011;8402;51.466;6.806;2022-09-09T14:28:40;4.72;;;2.05;;
16579;SDS011;8402;51.466;6.806;2022-09-09T14:31:25;3.40;;;1.80;;
16579;SDS011;8402;51.466;6.806;2022-09-09T14:33:54;4.38;;;1.55;;
16579;SDS011;8402;51.466;6.806;2022-09-09T14:36:22;3.95;;;1.90;;
16579;SDS011;8402;51.466;6.806;2022-09-09T14:38:50;4.85;;;1.52;;
16579;SDS011;8402;51.466;6.806;2022-09-09T14:41:20;4.05;;;1.67;;
16579;SDS011;8402;51.466;6.806;2022-09-09T14:43:49;3.92;;;1.70;;
16579;SDS011;8402;51.466;6.806;2022-09-09T14:46:19;4.53;;;1.13;;
16579;SDS011;8402;51.466;6.806;2022-09-09T14:48:49;4.70;;;1.40;;
16579;SDS011;8402;51.466;6.806;2022-09-09T14:51:18;3.42;;;0.90;;
16579;SDS011;8402;51.466;6.806;2022-09-09T14:53:50;2.53;;;0.90;;
16579;SDS011;8402;51.466;6.806;2022-09-09T14:56:22;1.25;;;0.90;;
16579;SDS011;8402;51.466;6.806;2022-09-09T14:58:52;1.42;;;0.77;;
16579;SDS011;8402;51.466;6.806;2022-09-09T15:01:22;1.95;;;0.77;;
16579;SDS011;8402;51.466;6.806;2022-09-09T15:03:55;2.75;;;1.00;;
16579;SDS011;8402;51.466;6.806;2022-09-09T15:06:24;2.25;;;1.15;;
16579;SDS011;8402;51.466;6.806;2022-09-09T15:08:53;3.17;;;1.20;;
16579;SDS011;8402;51.466;6.806;2022-09-09T15:11:24;3.63;;;1.00;;
16579;SDS011;8402;51.466;6.806;2022-09-09T15:13:54;2.33;;;1.13;;
16579;SDS011;8402;51.466;6.806;2022-09-09T15:16:23;4.72;;;1.27;;
16579;SDS011;8402;51.466;6.806;2022-09-09T15:18:53;4.32;;;1.30;;
16579;SDS011;8402;51.466;6.806;2022-09-09T15:21:23;3.88;;;1.20;;
16579;SDS011;8402;51.466;6.806;2022-09-09T15:23:52;2.83;;;1.08;;
16579;SDS011;8402;51.466;6.806;2022-09-09T15:26:20;4.10;;;1.23;;
16579;SDS011;8402;51.466;6.806;2022-09-09T15:28:49;3.55;;;1.25;;
16579;SDS011;8402;51.466;6.806;2022-09-09T15:31:18;1.90;;;1.13;;
16579;SDS011;8402;51.466;6.806;2022-09-09T15:33:47;2.55;;;1.30;;
16579;SDS011;8402;51.466;6.806;2022-09-09T15:36:17;3.20;;;1.40;;